Time;durP1;ratioP1;P1;durP2;ratioP2;P2;SDS_P1;SDS_P2;PMS_P1;PMS_P2;Temp;Humidity;BMP_temperature;BMP_pressure;BME280_temperature;BME280_humidity;BME280_pressure;Samples;Min_cycle;Max_cycle;Signal;HPM_P1;HPM_P2
2022/03/22 00:01:14;;;;;;;27.70;21.57;;;;;;;2.86;38.84;96351.56;4935691;29;20267;-62
2022/03/22 00:03:40;;;;;;;30.83;21.90;;;;;;;2.92;38.22;96351.31;4932872;29;20453;-62
2022/03/22 00:06:06;;;;;;;30.80;22.47;;;;;;;2.67;39.21;96353.34;4932925;29;20232;-61
2022/03/22 00:08:32;;;;;;;37.83;23.40;;;;;;;2.64;40.25;96357.78;4931041;29;20236;-61
2022/03/22 00:10:58;;;;;;;33.07;24.63;;;;;;;2.76;40.30;96346.00;4933125;29;20212;-62
2022/03/22 00:13:25;;;;;;;32.37;23.73;;;;;;;2.71;39.54;96347.97;4927654;29;20217;-62
2022/03/22 00:15:51;;;;;;;32.53;23.27;;;;;;;2.51;39.72;96340.22;4928430;29;20233;-62
2022/03/22 00:18:19;;;;;;;29.97;22.80;;;;;;;2.57;39.56;96346.00;4932691;29;20292;-62
2022/03/22 00:20:44;;;;;;;33.83;23.90;;;;;;;2.57;40.40;96345.16;4931809;29;20589;-62
2022/03/22 00:23:10;;;;;;;31.10;23.30;;;;;;;2.77;38.60;96332.06;4949719;28;20213;-62
2022/03/22 00:25:35;;;;;;;32.60;22.93;;;;;;;2.60;39.76;96334.63;4941910;29;20271;-63
2022/03/22 00:28:01;;;;;;;28.87;22.63;;;;;;;2.58;39.46;96332.09;4945221;28;20236;-62
2022/03/22 00:30:34;;;;;;;34.27;22.33;;;;;;;2.60;39.30;96334.63;4928771;29;20229;-62
2022/03/22 00:33:03;;;;;;;26.80;19.67;;;;;;;2.71;38.20;96336.72;4942098;28;20323;-62
2022/03/22 00:35:30;;;;;;;25.60;18.97;;;;;;;2.67;37.81;96322.19;4937430;29;20367;-62
2022/03/22 00:37:58;;;;;;;24.63;20.23;;;;;;;2.70;37.96;96329.84;4937617;29;20216;-61
2022/03/22 00:40:27;;;;;;;24.97;20.80;;;;;;;2.72;38.75;96334.03;4940643;29;20296;-61
2022/03/22 00:42:54;;;;;;;28.87;19.47;;;;;;;2.71;38.71;96337.56;4943356;29;20683;-61
2022/03/22 00:45:27;;;;;;;29.13;20.67;;;;;;;2.83;38.24;96337.00;4930368;29;20259;-62
2022/03/22 00:47:54;;;;;;;29.50;21.43;;;;;;;2.81;38.71;96331.03;4946347;29;20233;-62
2022/03/22 00:50:23;;;;;;;26.87;20.53;;;;;;;2.81;39.11;96335.41;4933001;29;20827;-62
2022/03/22 00:52:48;;;;;;;24.60;19.43;;;;;;;2.87;38.10;96322.09;4933688;29;20219;-62
2022/03/22 00:55:14;;;;;;;23.83;16.77;;;;;;;2.86;37.49;96320.41;4951462;29;20232;-62
2022/03/22 00:57:41;;;;;;;24.03;18.33;;;;;;;2.86;37.16;96333.41;4937526;29;20229;-62
2022/03/22 01:00:10;;;;;;;25.60;18.87;;;;;;;2.88;38.01;96328.97;4938458;29;20221;-62
2022/03/22 01:02:42;;;;;;;26.00;19.57;;;;;;;2.82;38.45;96331.88;4932027;29;20233;-62
2022/03/22 01:05:13;;;;;;;28.43;20.23;;;;;;;2.66;38.73;96323.94;4927823;29;20256;-62
2022/03/22 01:07:42;;;;;;;26.63;19.50;;;;;;;2.70;38.72;96322.91;4944737;28;20220;-62
2022/03/22 01:10:09;;;;;;;26.03;19.00;;;;;;;2.71;38.26;96326.34;4947171;29;20228;-61
2022/03/22 01:12:36;;;;;;;27.13;19.90;;;;;;;2.76;37.80;96325.22;4931389;29;20232;-61
2022/03/22 01:15:11;;;;;;;27.73;20.23;;;;;;;2.57;38.43;96320.03;4946544;29;20312;-61
2022/03/22 01:17:37;;;;;;;23.53;18.40;;;;;;;2.76;38.04;96314.81;4945113;29;20228;-62
2022/03/22 01:20:06;;;;;;;23.03;17.47;;;;;;;2.77;37.57;96311.31;4930047;29;20216;-62
2022/03/22 01:22:32;;;;;;;22.97;17.80;;;;;;;2.85;37.83;96314.38;4934375;29;20208;-62
2022/03/22 01:24:59;;;;;;;23.87;17.77;;;;;;;2.86;38.08;96310.88;4943568;28;20236;-62
2022/03/22 01:27:26;;;;;;;26.90;18.37;;;;;;;2.75;38.42;96294.94;4929899;29;20266;-62
2022/03/22 01:29:52;;;;;;;22.60;16.87;;;;;;;2.89;37.87;96302.09;4952388;29;20319;-62
2022/03/22 01:32:17;;;;;;;21.13;16.23;;;;;;;2.90;37.19;96298.56;4938775;29;20292;-61
2022/03/22 01:34:43;;;;;;;20.50;16.00;;;;;;;3.00;36.37;96297.22;4930383;29;20212;-62
2022/03/22 01:37:09;;;;;;;21.47;16.93;;;;;;;2.97;37.37;96299.97;4927335;29;20235;-61
2022/03/22 01:39:35;;;;;;;24.73;18.50;;;;;;;2.89;37.79;96299.50;4924714;29;20237;-61
2022/03/22 01:42:00;;;;;;;23.90;17.37;;;;;;;2.79;38.48;96295.66;4930141;29;20301;-61
2022/03/22 01:44:26;;;;;;;21.03;16.90;;;;;;;2.86;37.46;96289.22;4935525;29;20297;-61
2022/03/22 01:46:56;;;;;;;23.23;16.70;;;;;;;2.95;37.32;96295.75;4934931;29;20204;-61
2022/03/22 01:49:22;;;;;;;22.30;16.80;;;;;;;2.97;37.69;96299.97;4946962;28;20220;-61
2022/03/22 01:51:49;;;;;;;19.80;16.87;;;;;;;2.85;37.73;96292.75;4931875;29;20323;-61
2022/03/22 01:54:17;;;;;;;22.07;17.23;;;;;;;2.87;38.20;96302.16;4930949;29;20240;-61
2022/03/22 01:56:42;;;;;;;22.57;17.00;;;;;;;2.65;39.36;96307.53;4943687;28;20275;-61
2022/03/22 01:59:08;;;;;;;21.60;16.80;;;;;;;2.72;38.87;96296.84;4931872;29;20264;-61
2022/03/22 02:07:06;;;;;;;24.47;17.87;;;;;;;2.63;39.61;96293.78;4927491;29;20236;-61
2022/03/22 02:09:33;;;;;;;23.53;16.90;;;;;;;2.70;39.50;96285.69;4899753;29;20552;-60
2022/03/22 02:11:58;;;;;;;20.40;16.40;;;;;;;2.74;39.59;96285.47;4916784;29;20236;-62
2022/03/22 02:14:24;;;;;;;22.30;16.30;;;;;;;2.73;39.71;96285.56;4912098;29;20226;-61
2022/03/22 02:16:49;;;;;;;25.37;16.70;;;;;;;2.58;39.79;96282.75;4913682;29;20593;-61
2022/03/22 02:19:15;;;;;;;20.77;16.70;;;;;;;2.74;39.64;96276.84;4928567;29;20224;-61
2022/03/22 02:21:42;;;;;;;19.37;15.53;;;;;;;2.66;39.25;96282.41;4929633;29;20232;-62
2022/03/22 02:24:08;;;;;;;18.23;14.50;;;;;;;2.83;37.80;96279.00;4913371;29;20229;-61
2022/03/22 02:26:35;;;;;;;21.40;16.90;;;;;;;2.76;39.15;96277.63;4911854;29;20221;-62
2022/03/22 02:29:01;;;;;;;22.23;17.10;;;;;;;2.84;39.35;96281.53;4917580;28;20264;-62
2022/03/22 02:31:29;;;;;;;25.20;18.10;;;;;;;2.50;40.60;96284.88;4913686;29;20502;-61
2022/03/22 02:33:55;;;;;;;23.33;17.10;;;;;;;2.50;40.94;96287.47;4910045;29;20393;-61
2022/03/22 02:36:21;;;;;;;25.03;17.40;;;;;;;2.54;40.64;96278.63;4914705;29;20253;-61
2022/03/22 02:38:48;;;;;;;22.23;16.70;;;;;;;2.52;41.01;96274.44;4916220;29;20233;-62
2022/03/22 02:41:18;;;;;;;21.10;16.77;;;;;;;2.52;40.73;96264.88;4914418;29;20305;-61
2022/03/22 02:43:46;;;;;;;23.83;18.20;;;;;;;2.29;41.58;96278.09;4911521;29;20256;-61
2022/03/22 02:46:11;;;;;;;22.90;17.93;;;;;;;2.48;41.26;96284.09;4906828;29;20230;-61
2022/03/22 02:48:37;;;;;;;23.57;18.00;;;;;;;2.30;41.82;96277.16;4911295;29;20298;-61
2022/03/22 02:51:03;;;;;;;22.27;16.87;;;;;;;2.32;41.48;96275.34;4900860;29;20273;-61
2022/03/22 02:53:28;;;;;;;23.77;18.60;;;;;;;2.26;42.29;96283.41;4895382;29;20260;-61
2022/03/22 02:55:53;;;;;;;27.33;19.43;;;;;;;2.04;42.66;96273.19;4896187;29;20205;-62
2022/03/22 02:58:19;;;;;;;23.13;18.67;;;;;;;2.04;43.13;96280.97;4892378;29;20245;-61
2022/03/22 03:00:44;;;;;;;24.67;19.60;;;;;;;2.12;42.68;96292.66;4892610;29;20226;-61
2022/03/22 03:03:10;;;;;;;25.67;19.47;;;;;;;1.97;42.92;96289.00;4899697;29;20241;-62
2022/03/22 03:05:35;;;;;;;28.00;21.97;;;;;;;2.11;43.27;96288.41;4911917;29;20304;-62
2022/03/22 03:08:01;;;;;;;30.77;22.10;;;;;;;2.04;43.61;96283.56;4911493;29;20213;-62
2022/03/22 03:10:27;;;;;;;33.90;23.77;;;;;;;2.01;43.44;96288.88;4925832;29;20212;-62
2022/03/22 03:13:04;;;;;;;36.47;23.33;;;;;;;2.09;43.33;96291.97;4926766;29;20256;-61
2022/03/22 03:15:30;;;;;;;33.70;22.73;;;;;;;1.99;42.95;96291.53;4913670;29;20221;-62
2022/03/22 03:17:55;;;;;;;33.10;24.67;;;;;;;1.91;43.57;96286.69;4912570;29;20229;-62
2022/03/22 03:20:21;;;;;;;33.60;24.33;;;;;;;1.84;44.07;96292.19;4924879;29;20231;-62
2022/03/22 03:22:47;;;;;;;50.80;31.17;;;;;;;1.91;44.12;96284.09;4911963;29;20205;-62
2022/03/22 03:25:13;;;;;;;41.60;28.33;;;;;;;1.78;44.58;96282.94;4913106;29;20233;-62
2022/03/22 03:27:39;;;;;;;43.67;29.93;;;;;;;1.66;44.88;96288.69;4905545;29;20668;-62
2022/03/22 03:30:05;;;;;;;40.40;31.07;;;;;;;1.63;44.97;96284.47;4910927;29;20289;-61
2022/03/22 03:32:31;;;;;;;45.63;33.47;;;;;;;1.65;44.93;96285.22;4913032;29;20577;-62
2022/03/22 03:34:57;;;;;;;43.30;30.60;;;;;;;1.46;45.24;96289.53;4912572;29;20217;-62
2022/03/22 03:37:28;;;;;;;45.30;30.07;;;;;;;1.55;45.56;96289.13;4911430;29;20198;-62
2022/03/22 03:39:53;;;;;;;45.73;32.77;;;;;;;1.45;45.72;96295.63;4912367;29;20284;-62
2022/03/22 03:42:19;;;;;;;52.37;36.10;;;;;;;1.40;45.98;96288.03;4910281;29;20234;-62
2022/03/22 03:47:28;;;;;;;55.97;36.90;;;;;;;1.30;46.17;96292.75;4930298;29;20228;-62
2022/03/22 03:49:58;;;;;;;51.97;36.83;;;;;;;1.25;46.10;96283.50;4914087;29;20213;-62
2022/03/22 03:52:30;;;;;;;49.40;34.43;;;;;;;1.14;46.27;96285.69;4913148;29;20573;-63
2022/03/22 03:54:57;;;;;;;56.03;36.70;;;;;;;1.03;46.50;96280.94;4909059;29;20590;-62
2022/03/22 03:57:23;;;;;;;56.97;38.10;;;;;;;1.22;46.12;96276.69;4908981;29;20240;-62
2022/03/22 03:59:50;;;;;;;57.13;36.50;;;;;;;1.33;45.79;96287.44;4911612;29;20262;-63
2022/03/22 04:02:16;;;;;;;52.97;36.57;;;;;;;1.43;45.53;96292.25;4909234;29;20248;-63
2022/03/22 04:04:43;;;;;;;53.13;35.90;;;;;;;1.25;46.14;96284.31;4914571;29;20220;-63
2022/03/22 04:07:10;;;;;;;52.67;33.67;;;;;;;1.16;46.61;96282.13;4910830;29;20256;-62
2022/03/22 04:09:37;;;;;;;49.87;34.07;;;;;;;1.02;47.09;96297.41;4911044;29;20320;-62
2022/03/22 04:12:04;;;;;;;52.20;35.70;;;;;;;1.06;46.86;96294.59;4909444;29;20343;-62
2022/03/22 04:14:29;;;;;;;50.03;35.43;;;;;;;1.19;46.69;96284.59;4921895;29;20224;-62
2022/03/22 04:16:58;;;;;;;51.80;35.07;;;;;;;1.19;46.94;96283.75;4931326;29;20234;-62
2022/03/22 04:19:24;;;;;;;48.73;32.87;;;;;;;1.12;47.14;96282.31;4933097;29;20405;-61
2022/03/22 04:21:50;;;;;;;46.63;32.33;;;;;;;1.00;47.37;96276.75;4948033;28;20232;-62
2022/03/22 04:24:16;;;;;;;45.70;32.07;;;;;;;0.90;47.78;96277.16;4946698;29;20310;-61
2022/03/22 04:26:43;;;;;;;49.53;32.33;;;;;;;1.03;47.67;96291.31;4924295;29;20232;-61
2022/03/22 04:34:42;;;;;;;43.97;29.87;;;;;;;0.96;48.22;96287.28;4868763;29;20210;-61
2022/03/22 04:37:13;;;;;;;32.83;25.37;;;;;;;0.94;47.81;96277.00;4854480;29;20272;-61
2022/03/22 04:39:40;;;;;;;35.47;25.07;;;;;;;1.10;47.15;96283.22;4843474;29;20596;-62
2022/03/22 04:42:06;;;;;;;38.27;27.93;;;;;;;0.78;47.68;96289.72;4857327;29;20304;-62
2022/03/22 04:44:33;;;;;;;37.90;27.40;;;;;;;0.79;47.78;96288.81;4851428;29;20243;-62
2022/03/22 04:46:59;;;;;;;39.27;26.83;;;;;;;0.88;48.04;96274.63;4834035;29;20224;-62
2022/03/22 04:49:26;;;;;;;42.67;28.03;;;;;;;0.86;47.85;96277.31;4849653;29;20200;-62
2022/03/22 04:57:20;;;;;;;41.27;26.27;;;;;;;0.94;47.92;96279.59;4874175;29;20302;-61
2022/03/22 04:59:47;;;;;;;43.10;28.77;;;;;;;0.95;47.68;96285.59;4871996;29;20735;-62
2022/03/22 05:02:13;;;;;;;42.90;28.97;;;;;;;1.13;47.75;96282.25;4870589;29;22153;-61
2022/03/22 05:04:38;;;;;;;36.50;26.43;;;;;;;1.28;46.99;96283.34;4869755;29;20247;-62
2022/03/22 05:07:04;;;;;;;41.63;28.13;;;;;;;1.24;46.50;96287.84;4869844;29;20329;-63
2022/03/22 05:09:30;;;;;;;36.67;26.37;;;;;;;1.38;46.40;96287.25;4870584;29;20321;-61
2022/03/22 05:11:57;;;;;;;47.40;27.17;;;;;;;1.40;46.54;96285.44;4895147;29;20237;-61
2022/03/22 05:14:22;;;;;;;43.50;28.20;;;;;;;1.36;47.01;96289.06;4946236;29;20740;-61
2022/03/22 05:16:48;;;;;;;48.23;28.83;;;;;;;1.35;46.70;96283.97;4909934;29;20317;-61
2022/03/22 05:19:14;;;;;;;40.17;26.90;;;;;;;1.50;46.77;96275.53;4921300;29;20583;-61
2022/03/22 05:21:40;;;;;;;37.67;25.97;;;;;;;1.65;45.50;96287.81;4922778;29;20313;-60
2022/03/22 05:24:06;;;;;;;38.40;23.57;;;;;;;1.63;45.36;96291.38;4930302;29;20233;-61
2022/03/22 05:26:32;;;;;;;51.50;25.60;;;;;;;1.71;45.25;96274.59;4926441;29;20248;-62
2022/03/22 05:28:57;;;;;;;34.13;22.40;;;;;;;1.80;43.94;96275.13;4937138;29;20222;-61
2022/03/22 05:31:23;;;;;;;27.33;19.30;;;;;;;1.90;43.61;96276.41;4937118;29;20273;-61
2022/03/22 05:33:49;;;;;;;43.07;24.20;;;;;;;2.03;43.59;96274.91;4934436;29;20238;-61
2022/03/22 05:36:15;;;;;;;38.17;22.77;;;;;;;1.98;43.81;96276.88;4925156;29;20268;-62
2022/03/22 05:38:42;;;;;;;35.20;23.47;;;;;;;2.03;43.86;96276.66;4939700;29;20267;-63
2022/03/22 05:41:08;;;;;;;32.97;21.47;;;;;;;2.25;42.51;96279.16;4925759;29;20273;-63
2022/03/22 05:43:35;;;;;;;37.17;22.37;;;;;;;2.35;42.84;96278.66;4938562;29;20224;-63
2022/03/22 05:46:02;;;;;;;22.10;16.50;;;;;;;2.43;41.39;96275.69;4927624;29;20258;-63
2022/03/22 05:48:27;;;;;;;25.70;16.10;;;;;;;2.62;39.46;96271.34;4942427;29;20229;-61
2022/03/22 05:50:53;;;;;;;28.07;17.90;;;;;;;2.79;39.48;96267.09;4930712;29;20273;-63
2022/03/22 05:53:18;;;;;;;29.40;18.17;;;;;;;2.93;38.98;96264.66;4931956;29;20247;-63
2022/03/22 05:55:44;;;;;;;27.57;18.60;;;;;;;2.94;39.89;96268.09;4930248;29;20272;-63
2022/03/22 05:58:10;;;;;;;35.73;21.60;;;;;;;2.84;41.49;96260.75;4927979;29;20274;-62
2022/03/22 06:00:36;;;;;;;33.57;20.73;;;;;;;2.90;41.29;96269.16;4927686;29;20225;-61
2022/03/22 06:03:02;;;;;;;31.67;21.37;;;;;;;2.98;40.72;96267.88;4928382;29;20249;-62
2022/03/22 06:05:28;;;;;;;31.70;20.70;;;;;;;2.98;40.40;96256.63;4925646;29;20724;-61
2022/03/22 06:07:55;;;;;;;42.93;22.33;;;;;;;2.95;41.52;96270.63;4934111;29;20224;-62
2022/03/22 06:10:21;;;;;;;26.57;20.03;;;;;;;3.07;39.28;96263.97;4933405;29;20205;-62
2022/03/22 06:12:49;;;;;;;34.93;21.77;;;;;;;3.11;39.57;96260.31;4930378;29;20240;-61
2022/03/22 06:15:24;;;;;;;40.50;19.87;;;;;;;3.25;38.34;96270.03;4933066;29;20285;-61
2022/03/22 06:18:01;;;;;;;33.70;20.60;;;;;;;3.30;39.18;96268.03;4930161;29;20236;-61
2022/03/22 06:20:32;;;;;;;30.47;18.60;;;;;;;3.52;37.87;96271.22;4928722;29;20322;-61
2022/03/22 06:22:58;;;;;;;20.27;13.97;;;;;;;3.76;35.55;96257.88;4929736;28;20372;-61
2022/03/22 06:25:24;;;;;;;18.40;12.57;;;;;;;4.05;34.03;96260.72;4935213;29;20295;-61
2022/03/22 06:27:51;;;;;;;19.20;14.23;;;;;;;4.24;33.70;96256.22;4933339;29;20241;-62
2022/03/22 06:30:18;;;;;;;18.40;12.07;;;;;;;4.37;32.42;96245.97;4933822;29;20720;-61
2022/03/22 06:32:55;;;;;;;17.20;12.70;;;;;;;4.49;32.05;96254.88;4928514;29;20229;-62
2022/03/22 06:35:26;;;;;;;18.53;12.10;;;;;;;4.69;31.84;96254.63;4927494;29;20232;-62
2022/03/22 06:37:52;;;;;;;16.57;10.50;;;;;;;4.94;29.71;96254.06;4944450;28;20215;-63
2022/03/22 06:40:20;;;;;;;19.77;11.50;;;;;;;5.08;29.85;96258.53;4945953;28;20232;-63
2022/03/22 06:42:46;;;;;;;19.43;12.57;;;;;;;5.26;29.76;96252.22;4948539;29;20255;-63
2022/03/22 06:45:12;;;;;;;17.10;12.80;;;;;;;5.45;29.16;96252.00;4927981;29;20562;-63
2022/03/22 06:47:40;;;;;;;19.97;11.73;;;;;;;5.57;28.72;96250.44;4947815;29;20236;-62
2022/03/22 06:50:07;;;;;;;16.00;10.83;;;;;;;5.60;28.57;96258.06;4928936;29;20225;-62
2022/03/22 06:52:33;;;;;;;15.43;9.83;;;;;;;5.69;27.19;96262.75;4929707;29;20219;-63
2022/03/22 06:54:59;;;;;;;10.40;8.97;;;;;;;5.76;26.73;96263.22;4932048;29;20236;-62
2022/03/22 06:57:27;;;;;;;10.90;9.03;;;;;;;5.81;26.37;96260.34;4933790;29;20250;-63
2022/03/22 06:59:52;;;;;;;11.73;8.93;;;;;;;5.92;26.53;96255.31;4932856;29;20240;-62
2022/03/22 07:02:18;;;;;;;9.77;8.77;;;;;;;6.07;26.54;96259.63;4929963;29;20236;-62
2022/03/22 07:04:45;;;;;;;14.80;9.43;;;;;;;6.13;26.15;96254.03;4914440;29;20312;-63
2022/03/22 07:07:10;;;;;;;9.03;8.10;;;;;;;6.08;26.02;96245.63;4906835;29;20233;-63
2022/03/22 07:09:36;;;;;;;14.93;8.63;;;;;;;6.16;26.43;96253.84;4909694;29;20272;-62
2022/03/22 07:12:01;;;;;;;14.33;9.13;;;;;;;6.21;26.27;96253.56;4906550;29;20226;-63
2022/03/22 07:14:28;;;;;;;13.20;9.77;;;;;;;6.10;26.72;96254.22;4895223;29;20233;-62
2022/03/22 07:16:54;;;;;;;11.43;8.80;;;;;;;6.10;26.20;96246.41;4917238;29;20236;-62
2022/03/22 07:19:22;;;;;;;11.00;8.97;;;;;;;6.38;26.36;96257.72;4935101;29;20213;-62
2022/03/22 07:21:49;;;;;;;13.07;9.30;;;;;;;6.51;25.77;96249.97;4932794;29;20232;-61
2022/03/22 07:24:18;;;;;;;12.30;9.27;;;;;;;6.56;25.76;96251.34;4946553;29;20240;-65
2022/03/22 07:26:44;;;;;;;12.30;10.10;;;;;;;6.69;26.11;96247.97;4932293;29;20231;-62
2022/03/22 07:29:10;;;;;;;12.33;9.87;;;;;;;6.78;25.68;96242.16;4931285;28;20217;-64
2022/03/22 07:31:39;;;;;;;12.27;9.17;;;;;;;6.65;26.12;96246.47;4933539;29;20245;-63
2022/03/22 07:34:14;;;;;;;12.47;9.17;;;;;;;6.75;25.52;96237.13;4932343;29;20225;-63
2022/03/22 07:36:39;;;;;;;13.90;9.80;;;;;;;6.72;26.26;96235.53;4933890;29;20224;-62
2022/03/22 07:39:09;;;;;;;11.80;9.47;;;;;;;6.84;25.64;96237.38;4928890;29;20239;-63
2022/03/22 07:41:39;;;;;;;11.93;9.67;;;;;;;7.00;26.18;96228.53;4944201;28;20225;-63
2022/03/22 07:44:07;;;;;;;11.80;9.70;;;;;;;7.14;25.91;96227.63;4940674;28;20708;-62
2022/03/22 07:46:33;;;;;;;11.77;9.43;;;;;;;7.25;26.23;96225.97;4946238;28;20312;-62
2022/03/22 07:52:58;;;;;;;11.77;10.00;;;;;;;7.23;27.00;96221.78;4927911;29;20399;-62
2022/03/22 07:54:31;;;;;;;11.90;9.93;;;;;;;7.44;27.48;96225.59;4945177;29;20279;-62
2022/03/22 07:56:56;;;;;;;11.77;9.27;;;;;;;7.66;27.44;96234.59;4929899;29;20263;-62
2022/03/22 07:59:24;;;;;;;10.37;9.00;;;;;;;7.68;27.87;96236.19;4933050;29;20260;-65
2022/03/22 08:01:50;;;;;;;11.73;9.57;;;;;;;7.67;27.69;96233.66;4930786;29;20505;-63
2022/03/22 08:04:16;;;;;;;9.90;8.90;;;;;;;7.64;28.07;96237.31;4932055;29;20256;-62
2022/03/22 08:06:41;;;;;;;11.83;9.03;;;;;;;7.58;28.16;96239.53;4928980;29;20624;-62
2022/03/22 08:09:07;;;;;;;11.53;9.30;;;;;;;7.58;28.62;96229.06;4935494;29;20287;-62
2022/03/22 08:11:32;;;;;;;15.47;9.03;;;;;;;7.43;28.81;96226.53;4949460;28;20228;-62
2022/03/22 08:13:59;;;;;;;14.20;9.80;;;;;;;7.58;28.72;96229.88;4929900;28;20976;-63
2022/03/22 08:16:26;;;;;;;12.60;9.37;;;;;;;7.58;28.33;96227.28;4944327;29;20212;-63
2022/03/22 08:18:52;;;;;;;14.93;9.83;;;;;;;7.65;28.74;96227.72;4928278;29;20242;-63
2022/03/22 08:21:18;;;;;;;11.37;10.17;;;;;;;7.59;28.87;96233.34;4927659;29;20229;-63
2022/03/22 08:23:43;;;;;;;14.23;10.00;;;;;;;7.69;28.62;96234.41;4939599;28;20237;-64
2022/03/22 08:26:09;;;;;;;11.23;9.80;;;;;;;7.45;28.81;96229.88;4934016;28;20213;-64
2022/03/22 08:28:35;;;;;;;12.60;9.77;;;;;;;7.31;29.33;96229.97;4945879;28;20225;-62
2022/03/22 08:31:01;;;;;;;11.33;9.90;;;;;;;7.33;29.28;96228.09;4926278;29;20237;-63
2022/03/22 08:33:27;;;;;;;14.10;11.03;;;;;;;7.33;29.47;96230.72;4939858;28;20251;-63
2022/03/22 08:35:52;;;;;;;15.10;11.13;;;;;;;7.33;29.55;96241.16;4926784;29;20236;-64
2022/03/22 08:38:20;;;;;;;14.27;10.87;;;;;;;7.32;29.87;96234.25;4926840;29;20236;-63
2022/03/22 08:40:46;;;;;;;11.87;10.27;;;;;;;7.25;29.97;96239.06;4943068;29;20216;-63
2022/03/22 08:43:11;;;;;;;15.47;10.77;;;;;;;7.25;30.07;96233.00;4946301;28;20237;-62
2022/03/22 08:45:37;;;;;;;13.30;10.27;;;;;;;7.35;29.73;96238.44;4936007;29;20294;-61
2022/03/22 08:48:09;;;;;;;13.63;11.97;;;;;;;7.40;29.41;96237.19;4939730;28;20232;-63
2022/03/22 08:50:37;;;;;;;14.40;9.10;;;;;;;7.45;29.09;96226.41;4943025;28;20228;-63
2022/03/22 08:53:03;;;;;;;13.80;10.67;;;;;;;7.40;29.29;96221.50;4925197;29;20201;-63
2022/03/22 08:55:29;;;;;;;13.93;9.90;;;;;;;7.59;29.17;96233.34;4944151;28;20783;-62
2022/03/22 08:57:55;;;;;;;12.50;10.60;;;;;;;7.50;29.62;96229.56;4946534;29;20239;-62
2022/03/22 09:00:22;;;;;;;13.33;10.20;;;;;;;7.46;30.12;96226.34;4935638;29;20220;-63
2022/03/22 09:02:51;;;;;;;13.23;10.70;;;;;;;7.52;30.00;96230.31;4934721;29;20272;-63
2022/03/22 09:08:05;;;;;;;13.40;10.80;;;;;;;7.54;30.17;96214.50;4946303;29;20707;-65
2022/03/22 09:10:32;;;;;;;14.43;10.87;;;;;;;7.53;30.68;96216.28;4933093;29;20582;-65
2022/03/22 09:12:58;;;;;;;13.40;10.50;;;;;;;7.50;30.64;96211.25;4942179;28;20240;-65
2022/03/22 09:15:28;;;;;;;13.17;10.20;;;;;;;7.42;31.70;96216.16;4944012;28;20607;-65
2022/03/22 09:17:56;;;;;;;14.13;10.27;;;;;;;7.58;33.71;96210.72;4933947;29;20243;-65
2022/03/22 09:20:22;;;;;;;13.30;9.23;;;;;;;7.28;35.70;96210.06;4931930;29;20243;-65
2022/03/22 09:22:49;;;;;;;14.07;9.87;;;;;;;7.54;35.53;96211.88;4938417;29;20217;-64
2022/03/22 09:25:16;;;;;;;15.50;9.90;;;;;;;7.77;35.25;96200.66;4928879;29;20236;-66
2022/03/22 09:27:42;;;;;;;13.37;9.13;;;;;;;7.93;35.02;96203.91;4929429;29;20252;-66
2022/03/22 09:30:10;;;;;;;13.43;9.67;;;;;;;7.97;35.52;96203.72;4927294;29;20220;-67
2022/03/22 09:32:36;;;;;;;12.97;9.10;;;;;;;8.02;34.94;96185.88;4927394;29;20232;-66
2022/03/22 09:35:06;;;;;;;13.03;9.30;;;;;;;8.02;35.23;96193.72;4935825;29;20213;-66
2022/03/22 09:37:32;;;;;;;13.43;9.70;;;;;;;7.94;35.27;96183.81;4936544;29;20221;-67
2022/03/22 09:39:58;;;;;;;13.23;10.23;;;;;;;8.02;35.59;96175.41;4930779;29;20300;-62
2022/03/22 09:42:23;;;;;;;14.23;9.90;;;;;;;8.14;35.23;96175.38;4929148;29;20229;-62
2022/03/22 09:44:50;;;;;;;13.20;10.13;;;;;;;8.18;34.84;96179.47;4935840;29;20291;-62
2022/03/22 09:47:16;;;;;;;15.83;9.77;;;;;;;8.24;35.24;96175.56;4949695;28;20224;-62
2022/03/22 09:49:42;;;;;;;13.80;8.47;;;;;;;8.23;35.43;96178.28;4929688;29;20227;-63
2022/03/22 09:52:10;;;;;;;11.17;7.87;;;;;;;8.30;35.39;96175.13;4937359;29;20347;-67
2022/03/22 09:54:35;;;;;;;9.83;7.90;;;;;;;8.31;35.45;96175.97;4932804;29;20300;-65
2022/03/22 09:57:04;;;;;;;12.20;8.13;;;;;;;8.47;35.10;96168.69;4930054;29;20225;-65
2022/03/22 09:59:32;;;;;;;10.17;7.83;;;;;;;8.66;35.11;96177.84;4914264;29;20232;-65
2022/03/22 10:02:02;;;;;;;14.67;7.80;;;;;;;8.65;35.04;96171.78;4930193;29;20222;-64
2022/03/22 10:04:39;;;;;;;12.33;7.27;;;;;;;8.84;35.08;96163.41;4930654;29;20262;-65
2022/03/22 10:07:19;;;;;;;10.20;7.60;;;;;;;9.08;34.71;96163.38;4910122;29;20569;-64
2022/03/22 10:09:58;;;;;;;10.60;7.90;;;;;;;9.07;34.57;96159.09;4926176;29;20241;-65
2022/03/22 10:12:27;;;;;;;10.23;8.03;;;;;;;9.24;34.46;96150.78;4909907;29;20526;-64
2022/03/22 10:14:53;;;;;;;11.10;7.97;;;;;;;9.37;34.16;96134.09;4920990;29;20241;-64
2022/03/22 10:17:19;;;;;;;10.67;7.43;;;;;;;9.73;33.75;96140.97;4950628;28;20387;-65
2022/03/22 10:19:51;;;;;;;11.37;8.33;;;;;;;9.76;33.46;96130.22;4933692;29;20209;-64
2022/03/22 10:22:27;;;;;;;11.93;7.37;;;;;;;9.78;33.42;96140.56;4930639;29;20240;-64
2022/03/22 10:24:57;;;;;;;11.67;7.20;;;;;;;9.95;33.23;96137.47;4944804;29;20232;-64
2022/03/22 10:27:22;;;;;;;10.73;6.53;;;;;;;9.94;32.92;96134.03;4948604;29;20252;-64
2022/03/22 10:29:48;;;;;;;10.93;7.60;;;;;;;9.98;33.05;96129.34;4932539;29;20236;-64
2022/03/22 10:32:14;;;;;;;10.73;7.83;;;;;;;10.05;32.49;96133.19;4930734;29;20621;-67
2022/03/22 10:34:39;;;;;;;11.07;7.20;;;;;;;10.39;32.04;96127.88;4941999;29;20276;-67
2022/03/22 10:37:05;;;;;;;9.30;7.07;;;;;;;10.53;31.96;96127.63;4909744;29;20230;-67
2022/03/22 10:39:35;;;;;;;11.67;7.20;;;;;;;10.58;32.19;96122.81;4935753;28;20303;-68
2022/03/22 10:42:06;;;;;;;9.70;7.20;;;;;;;10.85;31.98;96118.88;4931673;28;20644;-68
2022/03/22 10:44:36;;;;;;;9.47;6.63;;;;;;;11.04;31.40;96110.31;4923664;29;20217;-67
2022/03/22 10:47:07;;;;;;;11.60;7.30;;;;;;;11.01;32.03;96103.50;4925572;29;20248;-67
2022/03/22 10:49:32;;;;;;;10.07;7.00;;;;;;;11.27;31.44;96098.66;4909553;29;20205;-68
2022/03/22 10:51:58;;;;;;;12.47;7.30;;;;;;;11.47;31.32;96096.16;4908640;29;20221;-66
2022/03/22 10:54:24;;;;;;;11.87;7.57;;;;;;;11.74;30.65;96089.50;4910212;29;20633;-67
2022/03/22 10:56:55;;;;;;;10.20;6.90;;;;;;;11.61;30.66;96082.63;4924487;29;20344;-67
2022/03/22 10:59:23;;;;;;;12.70;7.60;;;;;;;11.83;30.50;96070.22;4926158;29;20229;-67
2022/03/22 11:01:52;;;;;;;13.47;6.80;;;;;;;11.96;30.00;96076.13;4921410;29;20234;-67
2022/03/22 11:04:21;;;;;;;9.63;6.80;;;;;;;12.07;29.48;96069.91;4913753;29;20245;-65
2022/03/22 11:06:48;;;;;;;11.27;7.43;;;;;;;11.97;28.87;96063.78;4913484;29;20324;-67
2022/03/22 11:09:15;;;;;;;11.00;7.20;;;;;;;12.20;29.42;96070.50;4909138;29;20225;-64
2022/03/22 11:11:41;;;;;;;9.07;6.53;;;;;;;12.40;28.99;96065.25;4905228;29;20271;-63
2022/03/22 11:14:06;;;;;;;14.33;7.73;;;;;;;12.67;28.42;96054.00;4925421;29;20342;-64
2022/03/22 11:16:34;;;;;;;13.25;7.00;;;;;;;12.57;28.40;96060.13;4908570;29;20713;-65
2022/03/22 11:19:02;;;;;;;9.50;6.30;;;;;;;12.64;28.33;96049.84;4929786;29;20567;-65
2022/03/22 11:21:29;;;;;;;12.87;6.30;;;;;;;12.89;28.02;96058.19;4929469;29;20229;-65
2022/03/22 11:24:10;;;;;;;8.38;6.47;;;;;;;12.94;28.08;96053.31;4924932;29;20285;-66
2022/03/22 11:26:47;;;;;;;8.60;6.50;;;;;;;12.99;28.60;96036.09;4922180;29;20367;-65
2022/03/22 11:29:17;;;;;;;7.32;5.97;;;;;;;13.00;28.26;96034.28;4923594;29;20229;-65
2022/03/22 11:34:08;;;;;;;12.65;6.78;;;;;;;13.26;28.70;96021.31;4904554;29;20210;-64
2022/03/22 11:34:30;;;;;;;12.30;5.65;;;;;;;13.40;27.01;96017.38;4924779;29;20735;-65
2022/03/22 11:36:58;;;;;;;9.27;6.10;;;;;;;13.63;25.72;96016.03;4928453;29;20244;-65
2022/03/22 11:42:24;;;;;;;7.72;5.68;;;;;;;13.78;25.06;96008.44;4923414;29;20462;-60
2022/03/22 11:45:02;;;;;;;8.00;5.72;;;;;;;13.92;24.82;96001.81;4920890;29;20228;-59
2022/03/22 11:47:40;;;;;;;9.63;6.47;;;;;;;14.20;24.42;96002.63;4921919;29;20228;-60
2022/03/22 11:50:08;;;;;;;10.20;6.40;;;;;;;14.38;23.99;96002.66;4919475;29;20217;-60
2022/03/22 11:52:35;;;;;;;10.98;6.57;;;;;;;14.46;25.07;95989.50;4907022;29;20217;-60
2022/03/22 11:55:07;;;;;;;8.43;6.03;;;;;;;14.61;24.08;95986.31;4914729;29;20237;-64